Alto Crest, New Mexico
Current Conditions -  °F | °C
As of 5:15 AM on Thursday 29 Jan 2015 (Local Time) from KSRR Reporting Station
Few Clouds Few Clouds  
Wind Chill: 33°   Ceiling: Unl
Heat Index: 41°   Visibility: 10mi
Dew Point: 28°   Wind: 15mph
Humidity: 61%   Direction: 340°NNW
Pressure: 30.36"   Gusts: 20mph
Location:  33.3909°N, 105.634°W
Report Text: KSRR 291215Z AUTO 34013G17KT 10SM FEW120 05/M02 A3036 RMK AO2
Loading
Personal Weather Stations






























Interactive Weather Map New forecast layout! Learn more

10-Day Weather Forecast

Advertisements
Track Severe Weather on mobile